Terminal Aerodrome Forecast
Issued by NWS

Home | Current Version | Previous Version | Text Only | Print | Product List | Glossary On
Versions: 1 2 3 4 5 6 7 8 9 10 11 12 13 14 15 16 17 18 19
320
FTUS45 KABQ 290542 CCA
TAFROW
TAF COR
KROW 290542Z 2906/3006 VRB06KT P6SM SCT100
     FM290800 14006KT P6SM SCT015 BKN060
     FM291000 16006KT P6SM BKN015
     FM291600 08010KT P6SM SCT020 BKN040
     FM292100 08010KT P6SM VCSH SCT030 BKN060 PROB30 2923/3002
      VRB15G25KT 6SM -TSRA BKN060CB
     FM300200 06006KT 6SM -SHRA SCT020 BKN035=

USA.gov is the U.S. government's official web portal to all federal, state and local government web resources and services.